sensor_id;sensor_type;location;lat;lon;timestamp;pressure;altitude;pressure_sealevel;temperature;humidity
56400;BME280;42298;53.638;9.876;2023-04-29T00:02:06;100885.59;;;12.13;73.23
56400;BME280;42298;53.638;9.876;2023-04-29T00:04:31;100886.41;;;12.13;73.22
56400;BME280;42298;53.638;9.876;2023-04-29T00:06:57;100895.31;;;12.10;73.60
56400;BME280;42298;53.638;9.876;2023-04-29T00:09:22;100896.47;;;12.09;72.94
56400;BME280;42298;53.638;9.876;2023-04-29T00:11:48;100899.72;;;12.11;73.61
56400;BME280;42298;53.638;9.876;2023-04-29T00:14:14;100894.06;;;12.16;73.49
56400;BME280;42298;53.638;9.876;2023-04-29T00:16:40;100886.84;;;12.07;73.29
56400;BME280;42298;53.638;9.876;2023-04-29T00:19:05;100898.03;;;12.02;73.72
56400;BME280;42298;53.638;9.876;2023-04-29T00:21:31;100890.06;;;12.00;73.29
56400;BME280;42298;53.638;9.876;2023-04-29T00:23:57;100896.28;;;12.06;73.37
56400;BME280;42298;53.638;9.876;2023-04-29T00:26:22;100904.03;;;12.04;73.50
56400;BME280;42298;53.638;9.876;2023-04-29T00:28:48;100909.72;;;11.99;73.28
56400;BME280;42298;53.638;9.876;2023-04-29T00:31:13;100895.97;;;11.85;73.20
56400;BME280;42298;53.638;9.876;2023-04-29T00:33:38;100903.75;;;11.83;73.46
56400;BME280;42298;53.638;9.876;2023-04-29T00:36:05;100911.44;;;11.95;74.07
56400;BME280;42298;53.638;9.876;2023-04-29T00:38:30;100906.25;;;11.93;73.52
56400;BME280;42298;53.638;9.876;2023-04-29T00:40:56;100910.47;;;11.91;73.27
56400;BME280;42298;53.638;9.876;2023-04-29T00:43:21;100906.09;;;11.90;72.73
56400;BME280;42298;53.638;9.876;2023-04-29T00:45:47;100908.06;;;11.76;73.04
56400;BME280;42298;53.638;9.876;2023-04-29T00:48:12;100919.78;;;11.81;73.43
56400;BME280;42298;53.638;9.876;2023-04-29T00:50:39;100916.66;;;11.74;73.34
56400;BME280;42298;53.638;9.876;2023-04-29T00:53:05;100920.88;;;11.72;73.38
56400;BME280;42298;53.638;9.876;2023-04-29T00:55:32;100930.34;;;11.79;73.37
56400;BME280;42298;53.638;9.876;2023-04-29T00:57:57;100932.81;;;11.81;73.54
56400;BME280;42298;53.638;9.876;2023-04-29T01:00:23;100932.72;;;11.72;73.17
56400;BME280;42298;53.638;9.876;2023-04-29T01:02:51;100935.16;;;11.74;73.44
56400;BME280;42298;53.638;9.876;2023-04-29T01:05:18;100939.00;;;11.64;72.95
56400;BME280;42298;53.638;9.876;2023-04-29T01:10:28;100955.28;;;11.74;73.29
56400;BME280;42298;53.638;9.876;2023-04-29T01:15:40;100953.38;;;11.75;72.64
56400;BME280;42298;53.638;9.876;2023-04-29T01:18:14;100957.69;;;11.67;72.85
56400;BME280;42298;53.638;9.876;2023-04-29T01:20:43;100954.72;;;11.64;73.13
56400;BME280;42298;53.638;9.876;2023-04-29T01:23:09;100936.25;;;11.50;73.09
56400;BME280;42298;53.638;9.876;2023-04-29T01:25:34;100956.44;;;11.73;73.02
56400;BME280;42298;53.638;9.876;2023-04-29T01:28:30;100952.53;;;11.74;72.62
56400;BME280;42298;53.638;9.876;2023-04-29T01:31:07;100964.88;;;11.77;73.11
56400;BME280;42298;53.638;9.876;2023-04-29T01:33:58;100956.81;;;11.80;72.87
56400;BME280;42298;53.638;9.876;2023-04-29T01:36:34;100959.06;;;11.78;72.57
56400;BME280;42298;53.638;9.876;2023-04-29T01:39:15;100945.09;;;11.75;72.46
56400;BME280;42298;53.638;9.876;2023-04-29T01:41:56;100961.19;;;11.81;72.66
56400;BME280;42298;53.638;9.876;2023-04-29T01:44:27;100961.19;;;11.81;72.47
56400;BME280;42298;53.638;9.876;2023-04-29T01:46:53;100952.13;;;11.81;72.70
56400;BME280;42298;53.638;9.876;2023-04-29T01:49:28;100969.72;;;11.93;72.43
56400;BME280;42298;53.638;9.876;2023-04-29T01:51:53;100973.72;;;11.87;72.14
56400;BME280;42298;53.638;9.876;2023-04-29T01:54:20;100974.94;;;11.95;72.55
56400;BME280;42298;53.638;9.876;2023-04-29T01:56:48;100970.56;;;11.94;72.45
56400;BME280;42298;53.638;9.876;2023-04-29T01:59:15;100975.44;;;11.97;72.43
56400;BME280;42298;53.638;9.876;2023-04-29T02:01:41;100993.72;;;12.06;72.32
56400;BME280;42298;53.638;9.876;2023-04-29T02:04:06;100988.06;;;12.11;72.27
56400;BME280;42298;53.638;9.876;2023-04-29T02:06:31;100995.72;;;12.14;72.12
56400;BME280;42298;53.638;9.876;2023-04-29T02:08:57;100999.59;;;12.13;70.98
56400;BME280;42298;53.638;9.876;2023-04-29T02:11:23;101009.72;;;12.18;71.87
56400;BME280;42298;53.638;9.876;2023-04-29T02:13:48;101007.06;;;12.13;71.12
56400;BME280;42298;53.638;9.876;2023-04-29T02:16:14;101014.91;;;12.19;71.69
56400;BME280;42298;53.638;9.876;2023-04-29T02:18:40;101010.84;;;12.17;71.55
56400;BME280;42298;53.638;9.876;2023-04-29T02:21:06;101008.56;;;12.19;71.54
56400;BME280;42298;53.638;9.876;2023-04-29T02:23:31;101005.13;;;12.13;71.59
56400;BME280;42298;53.638;9.876;2023-04-29T02:25:58;101019.25;;;12.12;70.90
56400;BME280;42298;53.638;9.876;2023-04-29T02:28:23;101014.91;;;11.97;70.73
56400;BME280;42298;53.638;9.876;2023-04-29T02:30:48;101014.28;;;12.00;71.50
56400;BME280;42298;53.638;9.876;2023-04-29T02:33:14;101026.84;;;12.06;70.97
56400;BME280;42298;53.638;9.876;2023-04-29T02:35:40;101021.44;;;12.01;71.18
56400;BME280;42298;53.638;9.876;2023-04-29T02:38:05;101028.16;;;12.09;71.52
56400;BME280;42298;53.638;9.876;2023-04-29T02:40:31;101030.19;;;12.17;70.83
56400;BME280;42298;53.638;9.876;2023-04-29T02:42:56;101031.16;;;12.21;71.09
56400;BME280;42298;53.638;9.876;2023-04-29T02:45:22;101030.66;;;12.19;70.54
56400;BME280;42298;53.638;9.876;2023-04-29T02:47:47;101027.25;;;12.22;71.26
56400;BME280;42298;53.638;9.876;2023-04-29T02:50:12;101036.06;;;12.24;71.21
56400;BME280;42298;53.638;9.876;2023-04-29T02:52:37;101037.84;;;12.20;70.93
56400;BME280;42298;53.638;9.876;2023-04-29T02:55:06;101041.91;;;12.22;70.69
56400;BME280;42298;53.638;9.876;2023-04-29T02:57:31;101036.50;;;12.17;70.75
56400;BME280;42298;53.638;9.876;2023-04-29T02:59:57;101041.53;;;12.15;70.16
56400;BME280;42298;53.638;9.876;2023-04-29T03:02:23;101049.97;;;12.19;70.65
56400;BME280;42298;53.638;9.876;2023-04-29T03:04:48;101045.28;;;12.19;70.55
56400;BME280;42298;53.638;9.876;2023-04-29T03:07:14;101047.75;;;12.21;70.41
56400;BME280;42298;53.638;9.876;2023-04-29T03:09:40;101041.31;;;12.12;70.36
56400;BME280;42298;53.638;9.876;2023-04-29T03:12:06;101048.00;;;12.11;70.60
56400;BME280;42298;53.638;9.876;2023-04-29T03:14:31;101050.28;;;12.17;70.07
56400;BME280;42298;53.638;9.876;2023-04-29T03:16:56;101050.91;;;12.14;70.29
56400;BME280;42298;53.638;9.876;2023-04-29T03:19:22;101059.19;;;12.14;70.69
56400;BME280;42298;53.638;9.876;2023-04-29T03:21:47;101067.50;;;12.14;70.11
56400;BME280;42298;53.638;9.876;2023-04-29T03:24:12;101070.25;;;12.14;70.32
56400;BME280;42298;53.638;9.876;2023-04-29T03:26:40;101066.50;;;12.10;69.79
56400;BME280;42298;53.638;9.876;2023-04-29T03:29:06;101070.66;;;12.21;70.17
56400;BME280;42298;53.638;9.876;2023-04-29T03:31:32;101060.22;;;12.18;70.40
56400;BME280;42298;53.638;9.876;2023-04-29T03:33:58;101065.97;;;12.08;70.77
56400;BME280;42298;53.638;9.876;2023-04-29T03:36:23;101072.84;;;12.11;70.75
56400;BME280;42298;53.638;9.876;2023-04-29T03:38:48;101075.41;;;12.07;70.39
56400;BME280;42298;53.638;9.876;2023-04-29T03:41:14;101083.78;;;12.02;71.09
56400;BME280;42298;53.638;9.876;2023-04-29T03:43:39;101074.19;;;12.00;71.42
56400;BME280;42298;53.638;9.876;2023-04-29T03:46:06;101077.16;;;12.03;71.04
56400;BME280;42298;53.638;9.876;2023-04-29T03:48:31;101088.06;;;12.08;70.53
56400;BME280;42298;53.638;9.876;2023-04-29T03:50:57;101091.34;;;12.10;70.65
56400;BME280;42298;53.638;9.876;2023-04-29T03:53:23;101082.69;;;12.03;70.58
56400;BME280;42298;53.638;9.876;2023-04-29T03:55:50;101086.94;;;12.09;71.11
56400;BME280;42298;53.638;9.876;2023-04-29T03:58:15;101097.75;;;12.19;70.29
56400;BME280;42298;53.638;9.876;2023-04-29T04:00:40;101103.38;;;12.14;70.11
56400;BME280;42298;53.638;9.876;2023-04-29T04:03:06;101106.66;;;12.16;69.95
56400;BME280;42298;53.638;9.876;2023-04-29T04:05:31;101118.53;;;12.17;70.34
56400;BME280;42298;53.638;9.876;2023-04-29T04:07:58;101118.13;;;12.10;70.51
56400;BME280;42298;53.638;9.876;2023-04-29T04:10:24;101126.09;;;12.11;70.00
56400;BME280;42298;53.638;9.876;2023-04-29T04:12:50;101116.50;;;12.09;70.25
56400;BME280;42298;53.638;9.876;2023-04-29T04:15:15;101122.31;;;12.07;70.27
56400;BME280;42298;53.638;9.876;2023-04-29T04:17:41;101127.44;;;12.14;70.02
56400;BME280;42298;53.638;9.876;2023-04-29T04:20:07;101127.28;;;12.19;70.64
56400;BME280;42298;53.638;9.876;2023-04-29T04:22:32;101124.75;;;12.22;69.95
56400;BME280;42298;53.638;9.876;2023-04-29T04:24:58;101132.44;;;12.12;69.96
56400;BME280;42298;53.638;9.876;2023-04-29T04:27:23;101129.06;;;12.15;70.15
56400;BME280;42298;53.638;9.876;2023-04-29T04:29:55;101136.94;;;12.21;70.10
56400;BME280;42298;53.638;9.876;2023-04-29T04:32:21;101135.47;;;12.24;70.07
56400;BME280;42298;53.638;9.876;2023-04-29T04:34:47;101143.97;;;12.27;70.25
56400;BME280;42298;53.638;9.876;2023-04-29T04:37:13;101155.16;;;12.44;69.47
56400;BME280;42298;53.638;9.876;2023-04-29T04:39:38;101162.56;;;12.57;69.17
56400;BME280;42298;53.638;9.876;2023-04-29T04:42:03;101151.19;;;12.59;69.03
56400;BME280;42298;53.638;9.876;2023-04-29T04:44:29;101173.69;;;12.88;68.45
56400;BME280;42298;53.638;9.876;2023-04-29T04:46:55;101175.69;;;13.09;68.70
56400;BME280;42298;53.638;9.876;2023-04-29T04:49:22;101179.44;;;13.44;68.15
56400;BME280;42298;53.638;9.876;2023-04-29T04:51:49;101174.38;;;13.77;66.62
56400;BME280;42298;53.638;9.876;2023-04-29T04:54:14;101174.47;;;14.11;65.38
56400;BME280;42298;53.638;9.876;2023-04-29T04:56:39;101180.72;;;14.42;64.74
56400;BME280;42298;53.638;9.876;2023-04-29T04:59:05;101184.00;;;14.78;63.86
56400;BME280;42298;53.638;9.876;2023-04-29T05:01:30;101194.91;;;15.00;62.67
56400;BME280;42298;53.638;9.876;2023-04-29T05:03:57;101202.03;;;15.35;61.51
56400;BME280;42298;53.638;9.876;2023-04-29T05:06:22;101213.34;;;15.76;61.14
56400;BME280;42298;53.638;9.876;2023-04-29T05:08:47;101203.63;;;15.99;59.10
56400;BME280;42298;53.638;9.876;2023-04-29T05:11:16;101210.44;;;16.10;58.25
56400;BME280;42298;53.638;9.876;2023-04-29T05:13:43;101217.66;;;16.32;58.92
56400;BME280;42298;53.638;9.876;2023-04-29T05:16:08;101216.56;;;16.74;56.77
56400;BME280;42298;53.638;9.876;2023-04-29T05:18:33;101216.44;;;17.24;56.80
56400;BME280;42298;53.638;9.876;2023-04-29T05:20:59;101209.88;;;17.85;55.22
56400;BME280;42298;53.638;9.876;2023-04-29T05:23:24;101226.16;;;18.43;53.04
56400;BME280;42298;53.638;9.876;2023-04-29T05:25:49;101238.66;;;18.73;50.80
56400;BME280;42298;53.638;9.876;2023-04-29T05:28:15;101218.59;;;18.55;50.52
56400;BME280;42298;53.638;9.876;2023-04-29T05:30:42;101224.41;;;18.38;50.58
56400;BME280;42298;53.638;9.876;2023-04-29T05:33:07;101229.16;;;18.50;49.59
56400;BME280;42298;53.638;9.876;2023-04-29T05:35:33;101224.53;;;18.42;48.99
56400;BME280;42298;53.638;9.876;2023-04-29T05:37:58;101232.34;;;18.88;50.03
56400;BME280;42298;53.638;9.876;2023-04-29T05:40:23;101234.75;;;19.02;49.46
56400;BME280;42298;53.638;9.876;2023-04-29T05:42:48;101242.47;;;19.20;48.35
56400;BME280;42298;53.638;9.876;2023-04-29T05:45:14;101238.06;;;19.47;47.72
56400;BME280;42298;53.638;9.876;2023-04-29T05:47:39;101238.44;;;19.61;46.93
56400;BME280;42298;53.638;9.876;2023-04-29T05:50:05;101251.16;;;19.58;46.64
56400;BME280;42298;53.638;9.876;2023-04-29T05:52:30;101245.97;;;19.29;47.03
56400;BME280;42298;53.638;9.876;2023-04-29T05:54:56;101255.97;;;18.78;47.15
56400;BME280;42298;53.638;9.876;2023-04-29T05:57:21;101255.44;;;18.37;48.84
56400;BME280;42298;53.638;9.876;2023-04-29T05:59:47;101255.19;;;18.30;49.79
56400;BME280;42298;53.638;9.876;2023-04-29T06:02:13;101266.19;;;17.90;49.91
56400;BME280;42298;53.638;9.876;2023-04-29T06:04:39;101275.94;;;17.84;49.47
56400;BME280;42298;53.638;9.876;2023-04-29T06:07:05;101271.13;;;17.61;49.67
56400;BME280;42298;53.638;9.876;2023-04-29T06:09:33;101283.59;;;17.22;51.27
56400;BME280;42298;53.638;9.876;2023-04-29T06:11:59;101299.16;;;17.02;51.29
56400;BME280;42298;53.638;9.876;2023-04-29T06:14:25;101289.31;;;16.84;52.27
56400;BME280;42298;53.638;9.876;2023-04-29T06:16:50;101292.44;;;16.83;52.46
56400;BME280;42298;53.638;9.876;2023-04-29T06:19:15;101295.88;;;16.80;52.41
56400;BME280;42298;53.638;9.876;2023-04-29T06:21:41;101300.88;;;16.66;51.76
56400;BME280;42298;53.638;9.876;2023-04-29T06:24:06;101298.16;;;16.57;53.47
56400;BME280;42298;53.638;9.876;2023-04-29T06:26:32;101303.72;;;16.57;52.81
56400;BME280;42298;53.638;9.876;2023-04-29T06:28:57;101309.19;;;16.74;52.71
56400;BME280;42298;53.638;9.876;2023-04-29T06:31:23;101307.06;;;16.71;52.73
56400;BME280;42298;53.638;9.876;2023-04-29T06:33:48;101305.44;;;16.70;52.32
56400;BME280;42298;53.638;9.876;2023-04-29T06:36:13;101301.34;;;16.97;52.32
56400;BME280;42298;53.638;9.876;2023-04-29T06:38:38;101307.81;;;17.22;51.93
56400;BME280;42298;53.638;9.876;2023-04-29T06:41:04;101313.25;;;17.39;51.23
56400;BME280;42298;53.638;9.876;2023-04-29T06:43:29;101307.25;;;17.69;51.33
56400;BME280;42298;53.638;9.876;2023-04-29T06:45:55;101320.16;;;18.18;49.85
56400;BME280;42298;53.638;9.876;2023-04-29T06:48:21;101317.69;;;18.17;48.76
56400;BME280;42298;53.638;9.876;2023-04-29T06:50:50;101321.22;;;17.81;49.43
56400;BME280;42298;53.638;9.876;2023-04-29T06:53:15;101319.03;;;17.87;49.77
56400;BME280;42298;53.638;9.876;2023-04-29T06:55:40;101319.78;;;18.20;48.92
56400;BME280;42298;53.638;9.876;2023-04-29T06:58:06;101314.63;;;18.42;48.19
56400;BME280;42298;53.638;9.876;2023-04-29T07:00:32;101325.72;;;18.90;48.35
56400;BME280;42298;53.638;9.876;2023-04-29T07:02:58;101336.13;;;19.18;47.86
56400;BME280;42298;53.638;9.876;2023-04-29T07:05:23;101330.47;;;19.54;47.09
56400;BME280;42298;53.638;9.876;2023-04-29T07:07:49;101339.97;;;19.65;45.94
56400;BME280;42298;53.638;9.876;2023-04-29T07:10:14;101337.97;;;19.65;45.90
56400;BME280;42298;53.638;9.876;2023-04-29T07:12:40;101343.44;;;19.89;45.41
56400;BME280;42298;53.638;9.876;2023-04-29T07:15:05;101346.59;;;20.46;44.88
56400;BME280;42298;53.638;9.876;2023-04-29T07:17:31;101351.63;;;20.72;43.15
56400;BME280;42298;53.638;9.876;2023-04-29T07:19:56;101350.38;;;20.54;41.77
56400;BME280;42298;53.638;9.876;2023-04-29T07:22:21;101362.84;;;20.41;41.70
56400;BME280;42298;53.638;9.876;2023-04-29T07:24:52;101367.34;;;20.30;43.58
56400;BME280;42298;53.638;9.876;2023-04-29T07:27:17;101361.25;;;19.69;43.00
56400;BME280;42298;53.638;9.876;2023-04-29T07:29:42;101362.22;;;19.61;43.43
56400;BME280;42298;53.638;9.876;2023-04-29T07:32:08;101365.72;;;19.58;43.00
56400;BME280;42298;53.638;9.876;2023-04-29T07:34:33;101373.19;;;19.82;43.87
56400;BME280;42298;53.638;9.876;2023-04-29T07:36:58;101365.84;;;20.05;41.75
56400;BME280;42298;53.638;9.876;2023-04-29T07:39:24;101360.06;;;19.98;42.71
56400;BME280;42298;53.638;9.876;2023-04-29T07:41:49;101367.63;;;19.97;41.86
56400;BME280;42298;53.638;9.876;2023-04-29T07:44:16;101367.97;;;19.53;42.69
56400;BME280;42298;53.638;9.876;2023-04-29T07:46:41;101385.47;;;19.65;43.51
56400;BME280;42298;53.638;9.876;2023-04-29T07:49:06;101379.91;;;19.93;43.19
56400;BME280;42298;53.638;9.876;2023-04-29T07:51:32;101378.81;;;19.97;42.23
56400;BME280;42298;53.638;9.876;2023-04-29T07:53:57;101379.66;;;19.70;43.16
56400;BME280;42298;53.638;9.876;2023-04-29T07:56:22;101400.81;;;19.44;42.41
56400;BME280;42298;53.638;9.876;2023-04-29T07:58:48;101391.97;;;19.18;43.34
56400;BME280;42298;53.638;9.876;2023-04-29T08:01:13;101394.78;;;19.06;43.67
56400;BME280;42298;53.638;9.876;2023-04-29T08:03:39;101400.59;;;19.25;43.70
56400;BME280;42298;53.638;9.876;2023-04-29T08:06:05;101417.81;;;19.02;42.03
56400;BME280;42298;53.638;9.876;2023-04-29T08:08:31;101406.09;;;18.85;43.50
56400;BME280;42298;53.638;9.876;2023-04-29T08:10:56;101403.97;;;19.18;43.86
56400;BME280;42298;53.638;9.876;2023-04-29T08:13:22;101424.13;;;19.75;43.35
56400;BME280;42298;53.638;9.876;2023-04-29T08:15:47;101415.69;;;19.87;42.91
56400;BME280;42298;53.638;9.876;2023-04-29T08:18:13;101426.53;;;20.16;42.73
56400;BME280;42298;53.638;9.876;2023-04-29T08:20:38;101417.19;;;20.40;41.40
56400;BME280;42298;53.638;9.876;2023-04-29T08:23:03;101436.72;;;20.52;41.13
56400;BME280;42298;53.638;9.876;2023-04-29T08:25:29;101438.88;;;20.43;41.18
56400;BME280;42298;53.638;9.876;2023-04-29T08:27:54;101429.00;;;20.33;40.81
56400;BME280;42298;53.638;9.876;2023-04-29T08:30:20;101439.78;;;20.19;41.23
56400;BME280;42298;53.638;9.876;2023-04-29T08:32:46;101440.13;;;20.61;40.85
56400;BME280;42298;53.638;9.876;2023-04-29T08:35:11;101447.72;;;20.60;39.69
56400;BME280;42298;53.638;9.876;2023-04-29T08:37:37;101446.72;;;20.68;40.81
56400;BME280;42298;53.638;9.876;2023-04-29T08:40:02;101447.47;;;20.97;40.40
56400;BME280;42298;53.638;9.876;2023-04-29T08:42:35;101463.72;;;21.57;39.54
56400;BME280;42298;53.638;9.876;2023-04-29T08:45:02;101462.59;;;21.77;40.11
56400;BME280;42298;53.638;9.876;2023-04-29T08:47:32;101459.38;;;21.59;38.98
56400;BME280;42298;53.638;9.876;2023-04-29T08:50:04;101464.56;;;21.76;38.01
56400;BME280;42298;53.638;9.876;2023-04-29T08:52:30;101459.78;;;21.77;39.26
56400;BME280;42298;53.638;9.876;2023-04-29T08:54:57;101451.84;;;21.98;39.07
56400;BME280;42298;53.638;9.876;2023-04-29T08:57:25;101463.25;;;22.27;37.79
56400;BME280;42298;53.638;9.876;2023-04-29T08:59:50;101474.38;;;22.43;38.83
56400;BME280;42298;53.638;9.876;2023-04-29T09:02:16;101460.22;;;22.55;37.81
56400;BME280;42298;53.638;9.876;2023-04-29T09:04:47;101466.78;;;22.85;37.37
56400;BME280;42298;53.638;9.876;2023-04-29T09:07:14;101456.69;;;22.20;36.22
56400;BME280;42298;53.638;9.876;2023-04-29T09:09:41;101454.63;;;22.17;35.90
56400;BME280;42298;53.638;9.876;2023-04-29T09:12:06;101455.59;;;22.47;36.94
56400;BME280;42298;53.638;9.876;2023-04-29T09:14:32;101470.63;;;22.77;36.30
56400;BME280;42298;53.638;9.876;2023-04-29T09:16:58;101457.63;;;22.92;36.34
56400;BME280;42298;53.638;9.876;2023-04-29T09:19:34;101471.88;;;22.80;35.62
56400;BME280;42298;53.638;9.876;2023-04-29T09:22:01;101470.56;;;22.32;36.07
56400;BME280;42298;53.638;9.876;2023-04-29T09:24:29;101473.09;;;22.18;36.02
56400;BME280;42298;53.638;9.876;2023-04-29T09:26:56;101480.47;;;22.07;36.60
56400;BME280;42298;53.638;9.876;2023-04-29T09:29:21;101467.13;;;22.19;36.81
56400;BME280;42298;53.638;9.876;2023-04-29T09:31:48;101484.16;;;22.30;37.42
56400;BME280;42298;53.638;9.876;2023-04-29T09:34:13;101476.81;;;22.44;36.12
56400;BME280;42298;53.638;9.876;2023-04-29T09:36:47;101488.53;;;22.92;35.17
56400;BME280;42298;53.638;9.876;2023-04-29T09:39:21;101466.50;;;22.94;36.05
56400;BME280;42298;53.638;9.876;2023-04-29T09:44:22;101489.91;;;23.01;34.47
56400;BME280;42298;53.638;9.876;2023-04-29T09:49:29;101487.59;;;22.62;34.39
56400;BME280;42298;53.638;9.876;2023-04-29T09:51:59;101499.19;;;22.41;35.59
56400;BME280;42298;53.638;9.876;2023-04-29T09:54:27;101497.31;;;22.07;36.03
56400;BME280;42298;53.638;9.876;2023-04-29T09:56:54;101497.63;;;22.21;36.50
56400;BME280;42298;53.638;9.876;2023-04-29T09:59:20;101506.00;;;22.40;37.10
56400;BME280;42298;53.638;9.876;2023-04-29T10:01:53;101486.34;;;22.59;36.58
56400;BME280;42298;53.638;9.876;2023-04-29T10:04:21;101507.34;;;22.88;35.54
56400;BME280;42298;53.638;9.876;2023-04-29T10:06:51;101498.84;;;22.84;36.11
56400;BME280;42298;53.638;9.876;2023-04-29T10:09:18;101489.41;;;22.50;35.02
56400;BME280;42298;53.638;9.876;2023-04-29T10:11:45;101490.97;;;21.91;35.69
56400;BME280;42298;53.638;9.876;2023-04-29T10:14:21;101499.84;;;21.27;37.31
56400;BME280;42298;53.638;9.876;2023-04-29T10:16:48;101486.91;;;21.54;37.37
56400;BME280;42298;53.638;9.876;2023-04-29T10:19:24;101496.41;;;21.84;37.42
56400;BME280;42298;53.638;9.876;2023-04-29T10:21:53;101506.97;;;21.90;37.52
56400;BME280;42298;53.638;9.876;2023-04-29T10:24:19;101507.66;;;22.22;37.83
56400;BME280;42298;53.638;9.876;2023-04-29T10:26:46;101513.78;;;21.89;36.86
56400;BME280;42298;53.638;9.876;2023-04-29T10:29:14;101509.34;;;21.73;36.40
56400;BME280;42298;53.638;9.876;2023-04-29T10:31:42;101515.59;;;21.82;36.57
56400;BME280;42298;53.638;9.876;2023-04-29T10:34:07;101510.50;;;21.87;37.26
56400;BME280;42298;53.638;9.876;2023-04-29T10:36:33;101504.03;;;21.68;36.76
56400;BME280;42298;53.638;9.876;2023-04-29T10:39:02;101521.22;;;21.82;37.48
56400;BME280;42298;53.638;9.876;2023-04-29T10:41:44;101502.38;;;21.82;37.09
56400;BME280;42298;53.638;9.876;2023-04-29T10:44:11;101519.81;;;21.41;36.33
56400;BME280;42298;53.638;9.876;2023-04-29T10:46:37;101494.81;;;21.17;36.47
56400;BME280;42298;53.638;9.876;2023-04-29T10:49:03;101511.09;;;21.12;37.19
56400;BME280;42298;53.638;9.876;2023-04-29T10:51:38;101505.44;;;20.80;37.90
56400;BME280;42298;53.638;9.876;2023-04-29T10:54:13;101517.78;;;21.07;37.21
56400;BME280;42298;53.638;9.876;2023-04-29T10:56:49;101506.28;;;21.28;37.99
56400;BME280;42298;53.638;9.876;2023-04-29T10:59:19;101513.75;;;21.55;38.64
56400;BME280;42298;53.638;9.876;2023-04-29T11:01:52;101512.66;;;21.59;38.06
56400;BME280;42298;53.638;9.876;2023-04-29T11:04:19;101517.41;;;21.09;36.72
56400;BME280;42298;53.638;9.876;2023-04-29T11:06:47;101503.94;;;21.14;38.24
56400;BME280;42298;53.638;9.876;2023-04-29T11:09:14;101509.97;;;21.47;38.58
56400;BME280;42298;53.638;9.876;2023-04-29T11:14:14;101500.63;;;21.93;38.10
56400;BME280;42298;53.638;9.876;2023-04-29T11:16:57;101516.38;;;22.36;37.24
56400;BME280;42298;53.638;9.876;2023-04-29T11:19:46;101512.06;;;22.23;35.47
56400;BME280;42298;53.638;9.876;2023-04-29T11:24:59;101527.00;;;22.27;35.70
56400;BME280;42298;53.638;9.876;2023-04-29T11:27:30;101523.75;;;22.25;35.52
56400;BME280;42298;53.638;9.876;2023-04-29T11:29:56;101521.69;;;22.22;36.08
56400;BME280;42298;53.638;9.876;2023-04-29T11:32:24;101530.59;;;22.27;36.44
56400;BME280;42298;53.638;9.876;2023-04-29T11:34:50;101520.34;;;22.16;36.48
56400;BME280;42298;53.638;9.876;2023-04-29T11:37:23;101515.84;;;22.11;36.37
56400;BME280;42298;53.638;9.876;2023-04-29T11:39:49;101522.63;;;22.29;36.61
56400;BME280;42298;53.638;9.876;2023-04-29T11:42:19;101526.84;;;22.39;36.91
56400;BME280;42298;53.638;9.876;2023-04-29T11:44:44;101519.16;;;22.17;35.78
56400;BME280;42298;53.638;9.876;2023-04-29T11:47:10;101527.94;;;22.15;36.60
56400;BME280;42298;53.638;9.876;2023-04-29T11:49:35;101523.97;;;22.16;36.33
56400;BME280;42298;53.638;9.876;2023-04-29T11:52:02;101539.56;;;21.79;35.89
56400;BME280;42298;53.638;9.876;2023-04-29T11:54:28;101524.44;;;21.84;37.00
56400;BME280;42298;53.638;9.876;2023-04-29T11:56:55;101540.88;;;22.01;36.74
56400;BME280;42298;53.638;9.876;2023-04-29T11:59:21;101520.25;;;21.93;35.96
56400;BME280;42298;53.638;9.876;2023-04-29T12:01:48;101529.13;;;21.95;36.32
56400;BME280;42298;53.638;9.876;2023-04-29T12:04:13;101528.97;;;21.73;35.77
56400;BME280;42298;53.638;9.876;2023-04-29T12:06:38;101530.41;;;21.48;37.43
56400;BME280;42298;53.638;9.876;2023-04-29T12:09:05;101523.59;;;21.49;36.87
56400;BME280;42298;53.638;9.876;2023-04-29T12:11:31;101521.63;;;21.49;35.28
56400;BME280;42298;53.638;9.876;2023-04-29T12:13:56;101533.09;;;21.44;35.36
56400;BME280;42298;53.638;9.876;2023-04-29T12:16:22;101532.69;;;21.27;34.10
56400;BME280;42298;53.638;9.876;2023-04-29T12:18:52;101532.31;;;21.28;35.00
56400;BME280;42298;53.638;9.876;2023-04-29T12:21:18;101535.53;;;21.46;34.74
56400;BME280;42298;53.638;9.876;2023-04-29T12:23:44;101542.19;;;21.72;36.36
56400;BME280;42298;53.638;9.876;2023-04-29T12:26:10;101539.03;;;21.74;38.88
56400;BME280;42298;53.638;9.876;2023-04-29T12:28:39;101545.09;;;21.76;39.67
56400;BME280;42298;53.638;9.876;2023-04-29T12:31:08;101548.00;;;21.64;38.81
56400;BME280;42298;53.638;9.876;2023-04-29T12:33:34;101531.84;;;21.42;40.05
56400;BME280;42298;53.638;9.876;2023-04-29T12:35:59;101531.56;;;21.47;40.05
56400;BME280;42298;53.638;9.876;2023-04-29T12:38:28;101551.19;;;21.47;39.06
56400;BME280;42298;53.638;9.876;2023-04-29T12:40:55;101541.91;;;21.12;39.15
56400;BME280;42298;53.638;9.876;2023-04-29T12:43:27;101541.53;;;20.98;39.78
56400;BME280;42298;53.638;9.876;2023-04-29T12:45:57;101548.38;;;21.00;40.33
56400;BME280;42298;53.638;9.876;2023-04-29T12:48:28;101552.84;;;21.01;40.27
56400;BME280;42298;53.638;9.876;2023-04-29T12:50:54;101556.16;;;21.07;40.32
56400;BME280;42298;53.638;9.876;2023-04-29T12:53:22;101561.31;;;21.05;40.99
56400;BME280;42298;53.638;9.876;2023-04-29T12:55:48;101559.16;;;21.14;40.23
56400;BME280;42298;53.638;9.876;2023-04-29T12:58:13;101542.16;;;21.07;39.81
56400;BME280;42298;53.638;9.876;2023-04-29T13:00:39;101539.91;;;21.12;40.20
56400;BME280;42298;53.638;9.876;2023-04-29T13:03:04;101556.53;;;21.21;39.07
56400;BME280;42298;53.638;9.876;2023-04-29T13:05:30;101552.03;;;21.16;39.21